createdAt,value
2018-09-24T00:00:54.275Z,96960.62
2018-09-24T00:03:24.133Z,96958.07
2018-09-24T00:05:54.623Z,96955.58
2018-09-24T00:08:25.704Z,96971.55
2018-09-24T00:10:55.874Z,96988.97
2018-09-24T00:13:26.400Z,96996.70
2018-09-24T00:15:56.380Z,97005.77
2018-09-24T00:18:26.429Z,97026.00
2018-09-24T00:20:56.110Z,97037.43
2018-09-24T00:23:26.078Z,97034.14
2018-09-24T00:25:55.787Z,97031.67
2018-09-24T00:28:25.794Z,97037.80
2018-09-24T00:30:55.570Z,97055.55
2018-09-24T00:33:25.457Z,97062.54
2018-09-24T00:38:45.301Z,97061.99
2018-09-24T00:44:06.083Z,97055.83
2018-09-24T00:46:36.649Z,97056.50
2018-09-24T00:49:06.564Z,97059.37
2018-09-24T00:51:36.598Z,97068.57
2018-09-24T00:54:06.935Z,97092.38
2018-09-24T00:56:36.864Z,97119.09
2018-09-24T00:59:06.870Z,97118.31
2018-09-24T01:01:36.845Z,97119.67
2018-09-24T01:04:06.894Z,97138.14
2018-09-24T01:06:36.677Z,97162.19
2018-09-24T01:09:09.316Z,97165.56
2018-09-24T01:11:39.311Z,97145.30
2018-09-24T01:14:09.159Z,97127.63
2018-09-24T01:16:39.058Z,97160.63
2018-09-24T01:19:09.314Z,97159.45
2018-09-24T01:21:39.069Z,97138.06
2018-09-24T01:24:09.020Z,97145.39
2018-09-24T01:26:38.721Z,97157.59
2018-09-24T01:29:08.676Z,97145.91
2018-09-24T01:31:38.448Z,97158.68
2018-09-24T01:34:08.497Z,97153.55
2018-09-24T01:36:38.249Z,97163.50
2018-09-24T01:39:09.284Z,97169.55
2018-09-24T01:44:41.868Z,97181.81
2018-09-24T01:47:11.563Z,97175.38
2018-09-24T01:49:41.305Z,97181.58
2018-09-24T01:52:11.066Z,97190.90
2018-09-24T01:54:40.844Z,97195.82
2018-09-24T01:57:17.595Z,97194.97
2018-09-24T01:59:54.087Z,97204.66
2018-09-24T02:02:23.775Z,97171.02
2018-09-24T02:04:53.623Z,97182.83
2018-09-24T02:07:23.451Z,97174.39
2018-09-24T02:09:53.478Z,97165.19
2018-09-24T02:12:23.298Z,97141.69
2018-09-24T02:14:53.286Z,97133.13
2018-09-24T02:17:24.182Z,97133.82
2018-09-24T02:19:54.119Z,97130.92
2018-09-24T02:22:28.238Z,97115.91
2018-09-24T02:24:59.099Z,97120.02
2018-09-24T02:27:29.199Z,97115.63
2018-09-24T02:29:59.236Z,97126.13
2018-09-24T02:32:29.005Z,97114.73
2018-09-24T02:34:59.542Z,97120.23
2018-09-24T02:37:29.245Z,97144.57
2018-09-24T02:39:59.336Z,97157.32
2018-09-24T02:42:29.017Z,97156.95
2018-09-24T02:44:59.724Z,97166.05
2018-09-24T02:47:33.476Z,97180.10
2018-09-24T02:50:04.376Z,97163.78
2018-09-24T02:52:34.109Z,97168.66
2018-09-24T02:55:05.777Z,97155.55
2018-09-24T02:57:35.531Z,97154.73
2018-09-24T03:00:05.506Z,97172.02
2018-09-24T03:02:35.395Z,97164.06
2018-09-24T03:05:05.716Z,97155.95
2018-09-24T03:07:35.529Z,97190.52
2018-09-24T03:10:05.550Z,97200.27
2018-09-24T03:12:35.377Z,97216.49
2018-09-24T03:15:05.139Z,97247.74
2018-09-24T03:17:34.947Z,97257.86
2018-09-24T03:20:05.083Z,97271.20
2018-09-24T03:22:34.832Z,97277.17
2018-09-24T03:25:04.836Z,97269.66
2018-09-24T03:27:34.606Z,97285.75
2018-09-24T03:30:04.667Z,97286.33
2018-09-24T03:32:34.902Z,97290.25
2018-09-24T03:35:05.130Z,97311.86
2018-09-24T03:37:34.948Z,97310.52
2018-09-24T03:40:04.853Z,97316.13
2018-09-24T03:42:34.637Z,97307.78
2018-09-24T03:45:04.649Z,97340.36
2018-09-24T03:47:34.476Z,97343.92
2018-09-24T03:50:04.486Z,97349.64
2018-09-24T03:52:34.203Z,97378.19
2018-09-24T03:55:03.934Z,97383.56
2018-09-24T03:57:33.705Z,97404.63
2018-09-24T04:00:03.716Z,97402.00
2018-09-24T04:02:33.681Z,97411.39
2018-09-24T04:05:08.329Z,97384.22
2018-09-24T04:07:43.002Z,97358.74
2018-09-24T04:10:17.824Z,97374.67
2018-09-24T04:12:52.565Z,97365.36
2018-09-24T04:15:27.539Z,97351.17
2018-09-24T04:18:02.423Z,97363.44
2018-09-24T04:20:37.308Z,97410.66
2018-09-24T04:23:12.273Z,97426.98
2018-09-24T04:25:47.149Z,97425.33
2018-09-24T04:28:21.879Z,97436.35
2018-09-24T04:30:56.657Z,97451.12
2018-09-24T04:33:31.273Z,97429.92
2018-09-24T04:36:06.169Z,97438.14
2018-09-24T04:38:42.102Z,97449.55
2018-09-24T04:41:16.738Z,97500.48
2018-09-24T04:43:51.377Z,97513.47
2018-09-24T04:46:26.192Z,97499.34
2018-09-24T04:49:01.021Z,97482.80
2018-09-24T04:51:35.721Z,97455.27
2018-09-24T04:54:10.637Z,97457.27
2018-09-24T04:56:45.294Z,97477.59
2018-09-24T04:59:20.300Z,97483.41
2018-09-24T05:01:54.907Z,97498.63
2018-09-24T05:04:30.362Z,97519.30
2018-09-24T05:07:05.144Z,97529.42
2018-09-24T05:09:40.168Z,97527.25
2018-09-24T05:12:14.938Z,97514.17
2018-09-24T05:14:50.427Z,97545.58
2018-09-24T05:17:25.411Z,97555.31
2018-09-24T05:20:00.340Z,97562.03
2018-09-24T05:22:35.183Z,97568.20
2018-09-24T05:25:10.252Z,97563.89
2018-09-24T05:27:45.304Z,97562.96
2018-09-24T05:30:20.601Z,97576.15
2018-09-24T05:32:55.336Z,97585.41
2018-09-24T05:35:30.260Z,97599.42
2018-09-24T05:38:05.698Z,97613.38
2018-09-24T05:40:41.376Z,97614.20
2018-09-24T05:43:16.539Z,97628.48
2018-09-24T05:45:51.559Z,97643.61
2018-09-24T05:48:26.960Z,97657.32
2018-09-24T05:51:01.935Z,97674.41
2018-09-24T05:53:36.826Z,97666.05
2018-09-24T05:56:11.647Z,97671.33
2018-09-24T05:58:46.576Z,97669.23
2018-09-24T06:01:21.855Z,97700.23
2018-09-24T06:03:56.847Z,97704.17
2018-09-24T06:06:34.807Z,97714.69
2018-09-24T06:09:12.882Z,97731.50
2018-09-24T06:11:49.166Z,97736.09
2018-09-24T06:14:23.926Z,97745.20
2018-09-24T06:16:58.504Z,97748.96
2018-09-24T06:19:33.519Z,97764.68
2018-09-24T06:22:08.691Z,97768.95
2018-09-24T06:24:43.600Z,97769.44
2018-09-24T06:27:18.385Z,97777.16
2018-09-24T06:29:53.465Z,97796.07
2018-09-24T06:32:29.497Z,97799.58
2018-09-24T06:35:04.675Z,97806.05
2018-09-24T06:37:39.797Z,97811.18
2018-09-24T06:40:14.903Z,97811.36
2018-09-24T06:42:49.941Z,97825.47
2018-09-24T06:45:24.664Z,97812.31
2018-09-24T06:47:59.341Z,97824.19
2018-09-24T06:50:34.776Z,97835.13
2018-09-24T06:53:09.420Z,97842.30
2018-09-24T06:55:44.379Z,97857.38
2018-09-24T06:58:19.085Z,97877.81
2018-09-24T07:00:54.375Z,97889.39
2018-09-24T07:03:29.121Z,97893.23
2018-09-24T07:06:04.120Z,97895.47
2018-09-24T07:08:38.620Z,97901.20
2018-09-24T07:11:13.488Z,97926.56
2018-09-24T07:13:48.240Z,97935.05
2018-09-24T07:16:22.900Z,97939.10
2018-09-24T07:18:57.604Z,97948.27
2018-09-24T07:21:32.424Z,97959.84
2018-09-24T07:24:07.225Z,97976.44
2018-09-24T07:26:41.957Z,97988.20
2018-09-24T07:29:16.673Z,97984.84
2018-09-24T07:31:51.656Z,97991.30
2018-09-24T07:34:26.417Z,98004.87
2018-09-24T07:37:01.087Z,98014.25
2018-09-24T07:39:36.897Z,98016.79
2018-09-24T07:42:11.379Z,98014.79
2018-09-24T07:44:46.269Z,98019.62
2018-09-24T07:47:21.008Z,98029.21
2018-09-24T07:49:55.907Z,98047.95
2018-09-24T07:52:30.923Z,98054.02
2018-09-24T07:55:05.612Z,98061.25
2018-09-24T07:57:40.335Z,98064.30
2018-09-24T08:00:16.131Z,98058.18
2018-09-24T08:02:50.745Z,98073.89
2018-09-24T08:05:25.562Z,98076.92
2018-09-24T08:08:00.354Z,98089.66
2018-09-24T08:10:35.401Z,98095.83
2018-09-24T08:13:09.982Z,98110.47
2018-09-24T08:15:44.536Z,98113.75
2018-09-24T08:18:19.182Z,98117.55
2018-09-24T08:20:54.033Z,98121.62
2018-09-24T08:23:28.698Z,98134.88
2018-09-24T08:26:03.482Z,98134.42
2018-09-24T08:28:38.180Z,98146.45
2018-09-24T08:31:13.475Z,98154.86
2018-09-24T08:33:48.175Z,98165.64
2018-09-24T08:36:23.017Z,98169.17
2018-09-24T08:38:57.617Z,98175.19
2018-09-24T08:41:32.564Z,98183.86
2018-09-24T08:44:07.339Z,98188.44
2018-09-24T08:46:42.049Z,98197.83
2018-09-24T08:49:16.831Z,98200.66
2018-09-24T08:51:51.567Z,98212.94
2018-09-24T08:54:26.423Z,98214.09
2018-09-24T08:57:01.173Z,98210.34
2018-09-24T08:59:35.839Z,98213.05
2018-09-24T09:02:13.777Z,98204.52
2018-09-24T09:04:48.678Z,98206.31
2018-09-24T09:07:23.456Z,98207.25
2018-09-24T09:09:58.017Z,98210.94
2018-09-24T09:12:33.556Z,98218.05
2018-09-24T09:15:08.376Z,98225.28
2018-09-24T09:17:43.065Z,98235.79
2018-09-24T09:20:17.797Z,98228.14
2018-09-24T09:22:52.377Z,98241.77
2018-09-24T09:25:27.118Z,98241.21
2018-09-24T09:28:01.738Z,98242.22
2018-09-24T09:30:36.677Z,98250.09
2018-09-24T09:33:11.317Z,98259.84
2018-09-24T09:35:46.118Z,98269.30
2018-09-24T09:38:20.719Z,98273.94
2018-09-24T09:40:55.757Z,98279.64
2018-09-24T09:43:30.257Z,98280.06
2018-09-24T09:46:05.210Z,98277.73
2018-09-24T09:48:39.957Z,98281.19
2018-09-24T09:51:14.858Z,98279.68
2018-09-24T09:53:49.395Z,98281.84
2018-09-24T09:56:24.181Z,98282.58
2018-09-24T09:58:58.869Z,98294.56
2018-09-24T10:01:33.850Z,98288.52
2018-09-24T10:04:08.539Z,98299.91
2018-09-24T10:06:43.618Z,98303.07
2018-09-24T10:09:18.042Z,98302.27
2018-09-24T10:11:52.758Z,98303.19
2018-09-24T10:14:27.382Z,98311.44
2018-09-24T10:17:02.100Z,98308.16
2018-09-24T10:19:36.574Z,98305.41
2018-09-24T10:22:11.328Z,98308.56
2018-09-24T10:24:45.916Z,98315.70
2018-09-24T10:27:20.568Z,98314.41
2018-09-24T10:29:55.174Z,98324.56
2018-09-24T10:32:36.916Z,98323.69
2018-09-24T10:35:11.565Z,98315.13
2018-09-24T10:37:46.934Z,98313.44
2018-09-24T10:40:21.626Z,98320.48
2018-09-24T10:42:56.906Z,98324.22
2018-09-24T10:45:31.465Z,98322.91
2018-09-24T10:48:06.394Z,98327.42
2018-09-24T10:50:41.547Z,98328.97
2018-09-24T10:53:16.376Z,98335.42
2018-09-24T10:55:51.155Z,98343.08
2018-09-24T10:58:25.797Z,98344.81
2018-09-24T11:01:00.522Z,98354.81
2018-09-24T11:03:35.284Z,98354.60
2018-09-24T11:06:10.243Z,98346.31
2018-09-24T11:08:44.938Z,98349.34
2018-09-24T11:11:19.819Z,98346.26
2018-09-24T11:13:54.337Z,98349.42
2018-09-24T11:16:30.095Z,98347.36
2018-09-24T11:19:04.506Z,98347.09
2018-09-24T11:21:39.356Z,98342.62
2018-09-24T11:24:15.540Z,98340.51
2018-09-24T11:26:50.073Z,98352.38
2018-09-24T11:29:24.462Z,98343.47
2018-09-24T11:31:59.197Z,98349.63
2018-09-24T11:34:33.866Z,98346.13
2018-09-24T11:37:08.654Z,98348.62
2018-09-24T11:39:43.287Z,98355.23
2018-09-24T11:42:18.197Z,98352.59
2018-09-24T11:44:53.048Z,98353.73
2018-09-24T11:47:27.849Z,98354.94
2018-09-24T11:50:02.529Z,98353.39
2018-09-24T11:52:37.386Z,98352.44
2018-09-24T11:55:12.115Z,98359.87
2018-09-24T11:57:46.994Z,98362.50
2018-09-24T12:00:21.676Z,98367.25
2018-09-24T12:02:56.601Z,98372.58
2018-09-24T12:05:31.440Z,98364.89
2018-09-24T12:08:06.383Z,98369.70
2018-09-24T12:10:40.975Z,98385.34
2018-09-24T12:13:15.785Z,98379.80
2018-09-24T12:15:50.422Z,98378.84
2018-09-24T12:34:21.965Z,98402.39
2018-09-24T12:37:05.728Z,98402.59
2018-09-24T12:39:47.086Z,98406.21
2018-09-24T12:42:40.486Z,98408.47
2018-09-24T12:45:26.488Z,98416.16
2018-09-24T12:48:12.696Z,98416.33
2018-09-24T13:00:22.027Z,98447.51
2018-09-24T13:03:16.546Z,98453.66
2018-09-24T13:06:06.305Z,98453.89
2018-09-24T13:08:41.809Z,98457.70
2018-09-24T13:11:16.404Z,98452.78
2018-09-24T13:13:51.947Z,98440.95
2018-09-24T13:16:27.410Z,98443.21
2018-09-24T13:19:02.760Z,98446.59
2018-09-24T13:21:37.465Z,98445.81
2018-09-24T13:24:12.613Z,98450.44
2018-09-24T13:26:47.397Z,98454.37
2018-09-24T13:29:22.216Z,98444.73
2018-09-24T13:31:56.817Z,98447.41
2018-09-24T13:34:31.539Z,98438.91
2018-09-24T13:37:06.187Z,98429.58
2018-09-24T13:39:41.511Z,98424.41
2018-09-24T13:42:16.314Z,98426.97
2018-09-24T13:44:51.082Z,98425.75
2018-09-24T13:47:25.809Z,98430.16
2018-09-24T13:50:00.666Z,98421.27
2018-09-24T13:52:35.290Z,98431.05
2018-09-24T13:55:10.103Z,98423.42
2018-09-24T13:57:45.876Z,98423.69
2018-09-24T14:00:20.715Z,98424.22
2018-09-24T14:02:55.750Z,98430.99
2018-09-24T14:08:19.550Z,98421.72
2018-09-24T14:10:56.123Z,98414.92
2018-09-24T14:13:31.151Z,98414.63
2018-09-24T14:16:19.570Z,98413.73
2018-09-24T14:18:56.929Z,98416.71
2018-09-24T14:21:33.194Z,98413.70
2018-09-24T14:24:09.685Z,98412.38
2018-09-24T14:26:44.615Z,98417.37
2018-09-24T14:29:21.759Z,98416.80
2018-09-24T14:31:59.858Z,98421.91
2018-09-24T14:34:41.109Z,98420.36
2018-09-24T14:37:16.010Z,98419.44
2018-09-24T14:39:54.030Z,98422.39
2018-09-24T14:42:29.208Z,98423.71
2018-09-24T14:45:05.788Z,98428.80
2018-09-24T14:47:40.869Z,98442.05
2018-09-24T14:50:19.586Z,98437.45
2018-09-24T14:52:55.351Z,98437.88
2018-09-24T14:55:31.205Z,98438.52
2018-09-24T14:58:08.698Z,98444.81
2018-09-24T15:00:43.762Z,98445.81
2018-09-24T15:03:19.281Z,98448.03
2018-09-24T15:05:56.277Z,98455.39
2018-09-24T15:08:31.597Z,98461.26
2018-09-24T15:11:06.501Z,98466.31
2018-09-24T15:13:41.822Z,98472.31
2018-09-24T15:16:23.327Z,98475.33
2018-09-24T15:18:58.769Z,98476.81
2018-09-24T15:21:33.630Z,98481.67
2018-09-24T15:24:08.665Z,98486.72
2018-09-24T15:26:49.105Z,98492.01
2018-09-24T15:32:20.107Z,98496.18
2018-09-24T15:34:56.106Z,98495.05
2018-09-24T15:37:31.025Z,98493.64
2018-09-24T15:40:06.095Z,98495.86
2018-09-24T15:42:40.805Z,98501.08
2018-09-24T15:45:16.413Z,98504.26
2018-09-24T15:47:51.139Z,98505.53
2018-09-24T15:50:26.143Z,98505.91
2018-09-24T15:53:04.648Z,98506.78
2018-09-24T15:55:39.763Z,98516.81
2018-09-24T15:58:17.034Z,98526.23
2018-09-24T16:01:07.484Z,98532.41
2018-09-24T16:03:42.446Z,98528.10
2018-09-24T16:06:17.264Z,98528.03
2018-09-24T16:08:52.151Z,98538.87
2018-09-24T16:11:27.277Z,98539.41
2018-09-24T16:14:02.405Z,98539.91
2018-09-24T16:16:39.063Z,98543.77
2018-09-24T16:19:13.933Z,98544.58
2018-09-24T16:21:49.713Z,98547.65
2018-09-24T16:50:33.488Z,98603.40
2018-09-24T16:53:08.332Z,98607.55
2018-09-24T16:55:44.511Z,98613.16
2018-09-24T17:04:38.504Z,98621.55
2018-09-24T17:07:33.505Z,98622.70
2018-09-24T17:13:54.944Z,98634.67
2018-09-24T17:16:30.245Z,98638.27
2018-09-24T17:22:59.743Z,98641.80
2018-09-24T17:25:34.881Z,98643.39
2018-09-24T17:28:10.004Z,98658.00
2018-09-24T17:30:45.924Z,98653.30
2018-09-24T17:33:20.923Z,98658.02
2018-09-24T17:35:56.324Z,98659.95
2018-09-24T17:45:50.628Z,98679.97
2018-09-24T18:08:05.433Z,98727.03
2018-09-24T18:10:40.791Z,98725.42
2018-09-24T18:13:15.764Z,98724.77
2018-09-24T18:15:50.884Z,98732.67
2018-09-24T18:18:25.884Z,98734.66
2018-09-24T18:21:01.166Z,98738.64
2018-09-24T18:23:36.403Z,98747.03
2018-09-24T18:26:14.243Z,98754.47
2018-09-24T18:28:49.096Z,98764.53
2018-09-24T18:31:24.228Z,98760.65
2018-09-24T18:34:08.373Z,98775.88
2018-09-24T18:36:43.507Z,98780.28
2018-09-24T18:39:26.159Z,98782.20
2018-09-24T18:42:10.967Z,98784.09
2018-09-24T18:45:11.449Z,98787.14
2018-09-24T18:47:48.878Z,98792.84
2018-09-24T18:53:41.823Z,98806.34
2018-09-24T18:59:42.566Z,98822.88
2018-09-24T19:03:01.570Z,98820.88
2018-09-24T19:05:50.148Z,98822.77
2018-09-24T19:08:59.151Z,98823.30
2018-09-24T19:15:05.625Z,98826.45
2018-09-24T19:17:40.704Z,98832.11
2018-09-24T19:20:15.883Z,98832.63
2018-09-24T19:22:50.783Z,98828.02
2018-09-24T19:25:26.572Z,98836.72
2018-09-24T19:28:01.485Z,98830.75
2018-09-24T19:30:37.665Z,98832.52
2018-09-24T19:33:13.183Z,98835.92
2018-09-24T19:35:48.386Z,98840.27
2018-09-24T19:38:23.626Z,98840.25
2018-09-24T19:40:58.664Z,98852.18
2018-09-24T19:43:34.711Z,98846.05
2018-09-24T19:46:09.785Z,98851.55
2018-09-24T19:48:44.924Z,98851.47
2018-09-24T19:51:20.143Z,98850.68
2018-09-24T19:53:55.163Z,98851.61
2018-09-24T19:56:30.403Z,98859.44
2018-09-24T19:59:05.609Z,98853.92
2018-09-24T20:01:41.948Z,98855.23
2018-09-24T20:04:17.325Z,98862.48
2018-09-24T20:06:52.544Z,98859.77
2018-09-24T20:09:27.610Z,98868.76
2018-09-24T20:12:04.644Z,98868.67
2018-09-24T20:14:41.452Z,98869.59
2018-09-24T20:17:16.964Z,98871.73
2018-09-24T20:19:51.944Z,98875.99
2018-09-24T20:22:27.105Z,98877.27
2018-09-24T20:25:02.188Z,98883.19
2018-09-24T20:27:37.703Z,98888.73
2018-09-24T20:30:12.743Z,98887.81
2018-09-24T20:32:48.851Z,98886.47
2018-09-24T20:35:24.242Z,98882.98
2018-09-24T20:37:59.243Z,98891.62
2018-09-24T20:40:34.665Z,98890.64
2018-09-24T20:43:10.344Z,98881.56
2018-09-24T20:45:45.352Z,98884.73
2018-09-24T20:48:20.211Z,98881.77
2018-09-24T20:50:55.428Z,98882.21
2018-09-24T20:53:30.411Z,98880.09
2018-09-24T20:56:05.922Z,98883.68
2018-09-24T20:58:41.028Z,98880.73
2018-09-24T21:01:16.303Z,98879.89
2018-09-24T21:03:51.327Z,98880.81
2018-09-24T21:06:26.283Z,98872.32
2018-09-24T21:09:01.363Z,98877.69
2018-09-24T21:11:36.523Z,98882.53
2018-09-24T21:14:12.003Z,98881.17
2018-09-24T21:16:47.083Z,98880.33
2018-09-24T21:19:22.064Z,98887.64
2018-09-24T21:21:58.905Z,98890.20
2018-09-24T21:24:33.965Z,98888.95
2018-09-24T21:27:08.838Z,98884.67
2018-09-24T21:29:44.196Z,98891.53
2018-09-24T21:32:19.106Z,98900.62
2018-09-24T21:34:55.396Z,98905.50
2018-09-24T21:37:31.621Z,98906.89
2018-09-24T21:40:06.336Z,98908.37
2018-09-24T21:42:41.556Z,98904.14
2018-09-24T21:45:17.064Z,98896.41
2018-09-24T21:47:51.923Z,98897.25
2018-09-24T21:50:26.847Z,98902.47
2018-09-24T21:53:03.565Z,98906.86
2018-09-24T21:55:39.178Z,98906.00
2018-09-24T21:58:14.255Z,98918.14
2018-09-24T22:00:49.038Z,98911.25
2018-09-24T22:03:23.919Z,98910.52
2018-09-24T22:05:59.039Z,98906.24
2018-09-24T22:08:34.097Z,98905.44
2018-09-24T22:11:09.424Z,98913.70
2018-09-24T22:13:44.357Z,98914.11
2018-09-24T22:16:19.736Z,98911.17
2018-09-24T22:18:54.697Z,98909.86
2018-09-24T22:21:29.624Z,98912.00
2018-09-24T22:24:04.658Z,98903.84
2018-09-24T22:26:39.556Z,98912.45
2018-09-24T22:29:14.581Z,98912.88
2018-09-24T22:31:49.732Z,98914.69
2018-09-24T22:34:24.657Z,98915.10
2018-09-24T22:36:59.777Z,98911.23
2018-09-24T22:39:34.740Z,98912.03
2018-09-24T22:42:09.956Z,98905.21
2018-09-24T22:44:45.157Z,98900.91
2018-09-24T22:47:20.025Z,98905.67
2018-09-24T22:49:54.845Z,98909.91
2018-09-24T22:52:31.216Z,98914.29
2018-09-24T22:55:06.245Z,98918.58
2018-09-24T22:57:41.557Z,98914.31
2018-09-24T23:00:16.638Z,98916.53
2018-09-24T23:02:51.542Z,98920.37
2018-09-24T23:05:26.337Z,98923.34
2018-09-24T23:08:02.597Z,98922.59
2018-09-24T23:10:37.378Z,98919.66
2018-09-24T23:13:12.019Z,98922.31
2018-09-24T23:15:46.876Z,98925.70
2018-09-24T23:18:21.901Z,98920.97
2018-09-24T23:20:56.618Z,98926.13
2018-09-24T23:23:31.378Z,98921.35
2018-09-24T23:26:06.356Z,98922.62
2018-09-24T23:28:41.156Z,98926.52
2018-09-24T23:31:16.525Z,98928.76
2018-09-24T23:33:51.343Z,98923.23
2018-09-24T23:36:26.436Z,98930.53
2018-09-24T23:39:01.443Z,98924.09
2018-09-24T23:41:36.557Z,98930.11
2018-09-24T23:44:11.476Z,98927.56
2018-09-24T23:46:46.476Z,98930.23
2018-09-24T23:49:21.165Z,98933.73
2018-09-24T23:51:56.916Z,98930.80
2018-09-24T23:54:31.917Z,98933.84
2018-09-24T23:57:07.756Z,98941.06
2018-09-24T23:59:42.754Z,98930.30
